createdAt,value
2022-10-12T00:00:30.191Z,9.35
2022-10-12T00:03:03.061Z,9.38
2022-10-12T00:05:36.511Z,9.37
2022-10-12T00:08:09.935Z,9.39
2022-10-12T00:10:46.374Z,9.37
2022-10-12T00:13:19.765Z,9.37
2022-10-12T00:15:54.483Z,9.37
2022-10-12T00:18:27.394Z,9.35
2022-10-12T00:21:12.298Z,9.36
2022-10-12T00:23:46.406Z,9.36
2022-10-12T00:26:21.020Z,9.34
2022-10-12T00:29:02.572Z,9.30
2022-10-12T00:31:35.533Z,9.22
2022-10-12T00:34:09.009Z,9.18
2022-10-12T00:36:42.047Z,9.13
2022-10-12T00:39:14.961Z,9.12
2022-10-12T00:41:47.745Z,9.13
2022-10-12T00:44:45.084Z,9.11
2022-10-12T00:47:34.249Z,9.09
2022-10-12T00:50:28.120Z,9.11
2022-10-12T00:53:13.184Z,9.12
2022-10-12T00:55:55.805Z,9.13
2022-10-12T00:58:33.606Z,9.15
2022-10-12T01:01:07.808Z,9.13
2022-10-12T01:03:40.969Z,9.11
2022-10-12T01:06:14.312Z,9.10
2022-10-12T01:08:48.159Z,9.08
2022-10-12T01:11:20.978Z,9.09
2022-10-12T01:13:54.159Z,9.08
2022-10-12T01:16:46.457Z,9.05
2022-10-12T01:19:32.932Z,9.05
2022-10-12T01:22:09.734Z,9.02
2022-10-12T01:25:00.515Z,9.01
2022-10-12T01:27:54.459Z,8.99
2022-10-12T01:30:30.897Z,8.98
2022-10-12T01:33:14.078Z,8.91
2022-10-12T01:36:03.807Z,8.86
2022-10-12T01:38:59.079Z,8.79
2022-10-12T01:41:39.442Z,8.72
2022-10-12T01:44:12.252Z,8.65
2022-10-12T01:46:46.444Z,8.63
2022-10-12T01:49:23.808Z,8.60
2022-10-12T01:52:13.851Z,8.57
2022-10-12T01:55:29.289Z,8.57
2022-10-12T01:58:38.168Z,8.56
2022-10-12T02:01:33.958Z,8.55
2022-10-12T02:04:31.591Z,8.54
2022-10-12T02:07:08.432Z,8.54
2022-10-12T02:09:43.468Z,8.54
2022-10-12T02:12:20.169Z,8.53
2022-10-12T02:14:57.750Z,8.53
2022-10-12T02:17:32.975Z,8.56
2022-10-12T02:20:07.666Z,8.58
2022-10-12T02:22:41.819Z,8.60
2022-10-12T02:25:18.297Z,8.62
2022-10-12T02:28:01.414Z,8.62
2022-10-12T02:30:41.532Z,8.63
2022-10-12T02:33:21.833Z,8.66
2022-10-12T02:36:01.909Z,8.68
2022-10-12T02:38:42.146Z,8.69
2022-10-12T02:41:20.723Z,8.71
2022-10-12T02:44:01.914Z,8.71
2022-10-12T02:46:35.911Z,8.70
2022-10-12T02:49:09.481Z,8.69
2022-10-12T02:51:44.012Z,8.70
2022-10-12T02:54:17.778Z,8.69
2022-10-12T02:56:50.847Z,8.71
2022-10-12T02:59:23.891Z,8.72
2022-10-12T03:01:57.126Z,8.71
2022-10-12T03:04:30.095Z,8.68
2022-10-12T03:07:03.902Z,8.66
2022-10-12T03:09:37.085Z,8.64
2022-10-12T03:12:10.769Z,8.62
2022-10-12T03:14:43.790Z,8.57
2022-10-12T03:17:17.738Z,8.53
2022-10-12T03:19:51.185Z,8.50
2022-10-12T03:22:24.224Z,8.47
2022-10-12T03:24:59.402Z,8.44
2022-10-12T03:27:32.517Z,8.40
2022-10-12T03:30:05.959Z,8.33
2022-10-12T03:32:40.777Z,8.30
2022-10-12T03:35:14.184Z,8.32
2022-10-12T03:37:47.274Z,8.34
2022-10-12T03:40:20.285Z,8.37
2022-10-12T03:42:53.072Z,8.34
2022-10-12T03:45:26.596Z,8.33
2022-10-12T03:48:03.859Z,8.32
2022-10-12T03:50:35.226Z,8.29
2022-10-12T03:53:08.627Z,8.26
2022-10-12T03:55:42.839Z,8.25
2022-10-12T03:58:16.242Z,8.25
2022-10-12T04:00:49.410Z,8.25
2022-10-12T04:03:23.009Z,8.24
2022-10-12T04:05:58.095Z,8.22
2022-10-12T04:08:31.718Z,8.22
2022-10-12T04:11:04.794Z,8.20
2022-10-12T04:13:38.738Z,8.21
2022-10-12T04:16:12.177Z,8.22
2022-10-12T04:18:46.414Z,8.22
2022-10-12T04:21:19.770Z,8.24
2022-10-12T04:23:52.630Z,8.22
2022-10-12T04:26:25.486Z,8.21
2022-10-12T04:28:59.342Z,8.26
2022-10-12T04:31:33.174Z,8.27
2022-10-12T04:34:07.745Z,8.27
2022-10-12T04:36:41.452Z,8.29
2022-10-12T04:39:14.462Z,8.29
2022-10-12T04:41:47.988Z,8.31
2022-10-12T04:44:21.206Z,8.34
2022-10-12T04:46:54.074Z,8.37
2022-10-12T04:49:27.449Z,8.41
2022-10-12T04:52:00.242Z,8.44
2022-10-12T04:54:34.553Z,8.46
2022-10-12T04:57:07.353Z,8.50
2022-10-12T04:59:40.739Z,8.56
2022-10-12T05:02:13.695Z,8.58
2022-10-12T05:04:47.184Z,8.62
2022-10-12T05:07:19.869Z,8.69
2022-10-12T05:09:54.033Z,8.71
2022-10-12T05:12:27.029Z,8.75
2022-10-12T05:15:00.237Z,8.76
2022-10-12T05:17:33.112Z,8.76
2022-10-12T05:20:08.242Z,8.77
2022-10-12T05:22:42.269Z,8.77
2022-10-12T05:25:15.294Z,8.77
2022-10-12T05:27:48.223Z,8.77
2022-10-12T05:30:21.191Z,8.77
2022-10-12T05:32:55.227Z,8.75
2022-10-12T05:35:28.290Z,8.74
2022-10-12T05:38:01.568Z,8.72
2022-10-12T05:40:34.614Z,8.74
2022-10-12T05:43:07.779Z,8.77
2022-10-12T05:45:40.538Z,8.79
2022-10-12T05:48:13.386Z,8.79
2022-10-12T05:50:47.131Z,8.79
2022-10-12T05:53:20.337Z,8.79
2022-10-12T05:55:59.578Z,8.81
2022-10-12T05:58:32.892Z,8.87
2022-10-12T06:01:11.826Z,8.92
2022-10-12T06:03:44.835Z,8.99
2022-10-12T06:06:19.277Z,9.05
2022-10-12T06:08:52.097Z,9.12
2022-10-12T06:11:26.220Z,9.19
2022-10-12T06:13:59.582Z,9.26
2022-10-12T06:16:33.305Z,9.29
2022-10-12T06:19:06.974Z,9.33
2022-10-12T06:21:41.154Z,9.37
2022-10-12T06:24:14.245Z,9.42
2022-10-12T06:26:47.870Z,9.47
2022-10-12T06:29:22.507Z,9.51
2022-10-12T06:31:55.537Z,9.53
2022-10-12T06:34:29.133Z,9.57
2022-10-12T06:37:02.351Z,9.66
2022-10-12T06:39:35.598Z,9.73
2022-10-12T06:42:09.670Z,9.83
2022-10-12T06:44:44.953Z,9.88
2022-10-12T06:47:18.626Z,9.92
2022-10-12T06:49:51.548Z,9.98
2022-10-12T06:52:24.571Z,10.00
2022-10-12T06:54:58.233Z,10.03
2022-10-12T06:57:31.698Z,10.07
2022-10-12T07:00:05.016Z,10.12
2022-10-12T07:02:38.430Z,10.19
2022-10-12T07:05:11.706Z,10.24
2022-10-12T07:07:46.607Z,10.31
2022-10-12T07:10:21.020Z,10.39
2022-10-12T07:12:54.174Z,10.47
2022-10-12T07:15:27.171Z,10.57
2022-10-12T07:18:01.569Z,10.66
2022-10-12T07:20:34.730Z,10.73
2022-10-12T07:23:08.226Z,10.81
2022-10-12T07:25:41.956Z,10.88
2022-10-12T07:28:15.237Z,10.95
2022-10-12T07:30:50.364Z,11.03
2022-10-12T07:33:23.195Z,11.08
2022-10-12T07:36:13.245Z,11.14
2022-10-12T07:38:32.045Z,11.19
2022-10-12T07:41:06.613Z,11.25
2022-10-12T07:43:39.532Z,11.32
2022-10-12T07:46:12.824Z,11.37
2022-10-12T07:48:50.188Z,11.43
2022-10-12T07:51:21.179Z,11.46
2022-10-12T07:53:54.360Z,11.51
2022-10-12T07:56:29.063Z,11.54
2022-10-12T07:59:02.448Z,11.59
2022-10-12T08:01:36.022Z,11.63
2022-10-12T08:04:09.156Z,11.68
2022-10-12T08:06:44.511Z,11.74
2022-10-12T08:09:18.020Z,11.79
2022-10-12T08:11:51.135Z,11.83
2022-10-12T08:14:24.865Z,11.85
2022-10-12T08:16:58.289Z,11.88
2022-10-12T08:19:35.334Z,11.96
2022-10-12T08:22:06.821Z,12.02
2022-10-12T08:24:40.343Z,12.05
2022-10-12T08:27:13.537Z,12.13
2022-10-12T08:29:48.139Z,12.18
2022-10-12T08:32:21.027Z,12.20
2022-10-12T08:34:54.339Z,12.23
2022-10-12T08:37:29.891Z,12.28
2022-10-12T08:40:03.746Z,12.30
2022-10-12T08:42:44.689Z,12.34
2022-10-12T08:45:30.594Z,12.39
2022-10-12T08:48:10.473Z,12.41
2022-10-12T08:50:50.815Z,12.40
2022-10-12T08:53:31.196Z,12.41
2022-10-12T08:56:04.575Z,12.42
2022-10-12T08:58:41.815Z,12.42
2022-10-12T09:01:39.166Z,12.46
2022-10-12T09:04:48.177Z,12.47
2022-10-12T09:07:42.934Z,12.48
2022-10-12T09:10:41.177Z,12.48
2022-10-12T09:13:50.258Z,12.48
2022-10-12T09:16:29.175Z,12.48
2022-10-12T09:19:07.325Z,12.48
2022-10-12T09:21:41.763Z,12.55
2022-10-12T09:24:22.726Z,12.59
2022-10-12T09:27:00.786Z,12.61
2022-10-12T09:29:34.344Z,12.64
2022-10-12T09:32:31.590Z,12.70
2022-10-12T09:35:05.396Z,12.74
2022-10-12T09:37:39.237Z,12.79
2022-10-12T09:40:33.397Z,12.78
2022-10-12T09:43:06.909Z,12.82
2022-10-12T09:45:40.487Z,12.86
2022-10-12T09:48:20.809Z,12.87
2022-10-12T09:50:58.337Z,12.88
2022-10-12T09:53:41.055Z,12.93
2022-10-12T09:56:24.464Z,12.97
2022-10-12T09:59:05.689Z,12.99
2022-10-12T10:01:38.837Z,13.02
2022-10-12T10:04:18.333Z,13.04
2022-10-12T10:06:51.590Z,13.05
2022-10-12T10:09:37.240Z,13.06
2022-10-12T10:12:25.667Z,13.06
2022-10-12T10:15:00.276Z,13.07
2022-10-12T10:17:35.728Z,13.12
2022-10-12T10:20:08.749Z,13.17
2022-10-12T10:22:49.138Z,13.22
2022-10-12T10:25:24.524Z,13.22
2022-10-12T10:28:24.279Z,13.26
2022-10-12T10:31:02.731Z,13.29
2022-10-12T10:33:37.917Z,13.32
2022-10-12T10:36:24.791Z,13.34
2022-10-12T10:39:05.635Z,13.35
2022-10-12T10:41:41.539Z,13.38
2022-10-12T10:44:34.881Z,13.37
2022-10-12T10:47:13.464Z,13.38
2022-10-12T10:49:59.490Z,13.42
2022-10-12T10:52:37.135Z,13.46
2022-10-12T10:55:23.128Z,13.51
2022-10-12T10:58:07.965Z,13.54
2022-10-12T11:00:43.771Z,13.56
2022-10-12T11:03:45.960Z,13.56
2022-10-12T11:06:28.999Z,13.57
2022-10-12T11:09:25.969Z,13.59
2022-10-12T11:12:09.509Z,13.61
2022-10-12T11:14:46.795Z,13.63
2022-10-12T11:17:25.573Z,13.63
2022-10-12T11:20:44.789Z,13.60
2022-10-12T11:23:40.092Z,13.59
2022-10-12T11:26:23.287Z,13.56
2022-10-12T11:29:00.405Z,13.56
2022-10-12T11:31:40.264Z,13.56
2022-10-12T11:34:19.174Z,13.58
2022-10-12T11:37:18.666Z,13.56
2022-10-12T11:39:45.163Z,13.53
2022-10-12T11:42:23.134Z,13.53
2022-10-12T11:44:56.317Z,13.56
2022-10-12T11:47:45.831Z,13.63
2022-10-12T11:50:37.360Z,13.65
2022-10-12T11:53:21.252Z,13.69
2022-10-12T11:56:10.986Z,13.71
2022-10-12T11:59:00.554Z,13.73
2022-10-12T12:01:52.999Z,13.72
2022-10-12T12:04:48.256Z,13.73
2022-10-12T12:07:42.719Z,13.73
2022-10-12T12:10:35.564Z,13.74
2022-10-12T12:13:23.629Z,13.74
2022-10-12T12:16:01.326Z,13.75
2022-10-12T12:18:56.688Z,13.75
2022-10-12T12:21:29.917Z,13.74
2022-10-12T12:24:03.045Z,13.74
2022-10-12T12:26:36.533Z,13.75
2022-10-12T12:29:28.370Z,13.75
2022-10-12T12:32:02.791Z,13.80
2022-10-12T12:34:36.653Z,13.81
2022-10-12T12:37:16.731Z,13.80
2022-10-12T12:39:55.135Z,13.81
2022-10-12T12:42:31.490Z,13.82
2022-10-12T12:45:38.169Z,13.83
2022-10-12T12:48:13.289Z,13.83
2022-10-12T12:50:46.964Z,13.82
2022-10-12T12:53:22.027Z,13.81
2022-10-12T12:56:27.069Z,13.79
2022-10-12T12:59:32.579Z,13.78
2022-10-12T13:02:16.313Z,13.78
2022-10-12T13:05:06.032Z,13.77
2022-10-12T13:07:59.127Z,13.78
2022-10-12T13:11:03.877Z,13.75
2022-10-12T13:13:50.234Z,13.73
2022-10-12T13:19:16.579Z,13.72
2022-10-12T13:21:51.889Z,13.71
2022-10-12T13:24:34.553Z,13.70
2022-10-12T13:27:27.432Z,13.68
2022-10-12T13:30:14.051Z,13.68
2022-10-12T13:33:06.631Z,13.67
2022-10-12T13:35:51.599Z,13.66
2022-10-12T13:38:30.504Z,13.64
2022-10-12T13:41:15.993Z,13.63
2022-10-12T13:44:05.814Z,13.61
2022-10-12T13:49:46.012Z,13.54
2022-10-12T13:52:32.831Z,13.48
2022-10-12T13:55:17.571Z,13.45
2022-10-12T13:57:50.913Z,13.41
2022-10-12T14:00:30.477Z,13.37
2022-10-12T14:03:09.484Z,13.34
2022-10-12T14:05:47.641Z,13.30
2022-10-12T14:08:27.438Z,13.26
2022-10-12T14:11:02.001Z,13.21
2022-10-12T14:13:36.782Z,13.16
2022-10-12T14:16:10.151Z,13.13
2022-10-12T14:18:46.335Z,13.08
2022-10-12T14:21:34.574Z,13.02
2022-10-12T14:24:11.928Z,12.99
2022-10-12T14:26:48.198Z,12.94
2022-10-12T14:29:47.395Z,12.85
2022-10-12T14:32:26.759Z,12.80
2022-10-12T14:35:27.821Z,12.73
2022-10-12T14:38:01.871Z,12.66
2022-10-12T14:40:40.225Z,12.58
2022-10-12T14:43:20.870Z,12.52
2022-10-12T14:45:54.617Z,12.47
2022-10-12T14:48:28.067Z,12.40
2022-10-12T14:51:01.108Z,12.33
2022-10-12T14:53:34.251Z,12.25
2022-10-12T14:56:09.646Z,12.20
2022-10-12T14:58:42.956Z,12.13
2022-10-12T15:01:15.844Z,12.08
2022-10-12T15:03:49.949Z,12.03
2022-10-12T15:06:23.110Z,11.98
2022-10-12T15:08:56.045Z,11.90
2022-10-12T15:11:29.904Z,11.84
2022-10-12T15:14:02.772Z,11.79
2022-10-12T15:16:36.066Z,11.73
2022-10-12T15:19:09.941Z,11.68
2022-10-12T15:21:43.796Z,11.62
2022-10-12T15:24:17.248Z,11.55
2022-10-12T15:26:50.414Z,11.50
2022-10-12T15:29:24.058Z,11.45
2022-10-12T15:31:58.621Z,11.39
2022-10-12T15:34:31.442Z,11.32
2022-10-12T15:37:08.827Z,11.27
2022-10-12T15:39:41.869Z,11.22
2022-10-12T15:42:17.422Z,11.16
2022-10-12T15:44:51.021Z,11.11
2022-10-12T15:47:23.948Z,11.08
2022-10-12T15:49:56.895Z,11.03
2022-10-12T15:52:30.505Z,11.00
2022-10-12T15:55:05.108Z,10.95
2022-10-12T15:57:37.936Z,10.88
2022-10-12T16:00:12.516Z,10.82
2022-10-12T16:02:44.932Z,10.78
2022-10-12T16:05:28.315Z,10.71
2022-10-12T16:08:02.577Z,10.63
2022-10-12T16:10:42.121Z,10.57
2022-10-12T16:13:16.900Z,10.53
2022-10-12T16:15:50.574Z,10.48
2022-10-12T16:18:23.486Z,10.44
2022-10-12T16:20:58.397Z,10.38
2022-10-12T16:23:35.651Z,10.30
2022-10-12T16:26:12.919Z,10.21
2022-10-12T16:28:45.747Z,10.12
2022-10-12T16:31:19.533Z,10.03
2022-10-12T16:33:52.316Z,9.94
2022-10-12T16:36:26.135Z,9.85
2022-10-12T16:39:00.070Z,9.75
2022-10-12T16:41:34.271Z,9.67
2022-10-12T16:44:08.472Z,9.62
2022-10-12T16:46:41.617Z,9.55
2022-10-12T16:49:15.166Z,9.51
2022-10-12T16:51:49.901Z,9.49
2022-10-12T16:54:25.294Z,9.46
2022-10-12T16:57:03.561Z,9.43
2022-10-12T16:59:38.707Z,9.40
2022-10-12T17:02:14.381Z,9.36
2022-10-12T17:04:48.636Z,9.34
2022-10-12T17:07:22.404Z,9.35
2022-10-12T17:09:59.189Z,9.31
2022-10-12T17:12:32.306Z,9.25
2022-10-12T17:15:07.376Z,9.20
2022-10-12T17:17:41.357Z,9.17
2022-10-12T17:20:15.782Z,9.15
2022-10-12T17:22:49.305Z,9.14
2022-10-12T17:25:22.375Z,9.14
2022-10-12T17:27:55.560Z,9.14
2022-10-12T17:30:28.721Z,9.13
2022-10-12T17:33:01.611Z,9.12
2022-10-12T17:35:34.894Z,9.11
2022-10-12T17:38:11.479Z,9.10
2022-10-12T17:40:44.567Z,9.10
2022-10-12T17:43:18.018Z,9.07
2022-10-12T17:45:51.181Z,9.02
2022-10-12T17:48:26.434Z,8.97
2022-10-12T17:51:06.328Z,8.93
2022-10-12T17:53:42.853Z,8.88
2022-10-12T17:56:19.014Z,8.82
2022-10-12T17:59:01.320Z,8.76
2022-10-12T18:01:35.665Z,8.70
2022-10-12T18:04:09.218Z,8.65
2022-10-12T18:06:42.697Z,8.64
2022-10-12T18:09:15.986Z,8.64
2022-10-12T18:11:49.275Z,8.65
2022-10-12T18:14:23.937Z,8.64
2022-10-12T18:16:58.590Z,8.63
2022-10-12T18:19:32.929Z,8.60
2022-10-12T18:22:06.128Z,8.59
2022-10-12T18:24:40.744Z,8.59
2022-10-12T18:27:14.150Z,8.58
2022-10-12T18:29:47.412Z,8.55
2022-10-12T18:32:21.095Z,8.57
2022-10-12T18:34:54.928Z,8.57
2022-10-12T18:37:29.065Z,8.56
2022-10-12T18:40:02.318Z,8.54
2022-10-12T18:42:36.061Z,8.54
2022-10-12T18:45:10.330Z,8.52
2022-10-12T18:47:43.312Z,8.52
2022-10-12T18:50:16.554Z,8.53
2022-10-12T18:52:49.574Z,8.54
2022-10-12T18:55:23.242Z,8.53
2022-10-12T18:57:56.222Z,8.50
2022-10-12T19:00:29.154Z,8.46
2022-10-12T19:03:03.287Z,8.40
2022-10-12T19:05:36.343Z,8.37
2022-10-12T19:08:09.963Z,8.31
2022-10-12T19:10:43.812Z,8.26
2022-10-12T19:13:17.199Z,8.23
2022-10-12T19:15:50.318Z,8.20
2022-10-12T19:18:23.904Z,8.17
2022-10-12T19:21:00.017Z,8.14
2022-10-12T19:23:33.626Z,8.11
2022-10-12T19:26:12.438Z,8.08
2022-10-12T19:28:46.704Z,8.05
2022-10-12T19:31:35.299Z,8.03
2022-10-12T19:34:12.622Z,8.02
2022-10-12T19:36:46.703Z,8.02
2022-10-12T19:39:24.304Z,8.02
2022-10-12T19:41:57.522Z,8.02
2022-10-12T19:44:30.440Z,8.03
2022-10-12T19:47:03.860Z,8.01
2022-10-12T19:49:39.171Z,8.01
2022-10-12T19:52:11.807Z,8.03
2022-10-12T19:54:44.891Z,8.03
2022-10-12T19:57:18.527Z,8.04
2022-10-12T19:59:52.845Z,8.02
2022-10-12T20:02:25.933Z,8.01
2022-10-12T20:04:58.929Z,8.03
2022-10-12T20:07:31.931Z,8.02
2022-10-12T20:10:08.192Z,8.04
2022-10-12T20:12:41.701Z,8.07
2022-10-12T20:15:15.131Z,8.10
2022-10-12T20:17:48.348Z,8.11
2022-10-12T20:20:22.323Z,8.13
2022-10-12T20:22:55.283Z,8.24
2022-10-12T20:25:28.168Z,8.30
2022-10-12T20:28:02.686Z,8.36
2022-10-12T20:30:35.711Z,8.43
2022-10-12T20:33:08.851Z,8.49
2022-10-12T20:35:49.951Z,8.50
2022-10-12T20:38:23.743Z,8.50
2022-10-12T20:41:15.912Z,8.56
2022-10-12T20:43:49.894Z,8.62
2022-10-12T20:46:22.964Z,8.68
2022-10-12T20:48:59.463Z,8.73
2022-10-12T20:51:40.017Z,8.78
2022-10-12T20:54:19.231Z,8.82
2022-10-12T20:56:52.309Z,8.86
2022-10-12T20:59:25.659Z,8.88
2022-10-12T21:02:01.741Z,8.94
2022-10-12T21:04:38.538Z,8.97
2022-10-12T21:07:16.474Z,9.00
2022-10-12T21:09:49.835Z,9.05
2022-10-12T21:12:23.125Z,9.09
2022-10-12T21:14:57.574Z,9.10
2022-10-12T21:17:30.830Z,9.10
2022-10-12T21:20:05.211Z,9.09
2022-10-12T21:22:38.932Z,9.11
2022-10-12T21:25:12.109Z,9.12
2022-10-12T21:27:45.235Z,9.13
2022-10-12T21:30:18.310Z,9.15
2022-10-12T21:32:51.262Z,9.17
2022-10-12T21:35:24.684Z,9.18
2022-10-12T21:37:57.596Z,9.18
2022-10-12T21:40:32.116Z,9.16
2022-10-12T21:43:05.553Z,9.15
2022-10-12T21:45:39.155Z,9.13
2022-10-12T21:48:12.546Z,9.09
2022-10-12T21:50:46.082Z,9.04
2022-10-12T21:53:19.007Z,9.00
2022-10-12T21:55:52.089Z,8.93
2022-10-12T21:58:25.286Z,8.87
2022-10-12T22:01:14.250Z,8.80
2022-10-12T22:03:49.972Z,8.77
2022-10-12T22:06:24.804Z,8.75
2022-10-12T22:09:08.063Z,8.73
2022-10-12T22:11:42.916Z,8.72
2022-10-12T22:14:19.481Z,8.70
2022-10-12T22:16:52.228Z,8.66
2022-10-12T22:19:25.178Z,8.61
2022-10-12T22:21:58.112Z,8.57
2022-10-12T22:24:32.737Z,8.57
2022-10-12T22:27:05.649Z,8.52
2022-10-12T22:29:38.732Z,8.54
2022-10-12T22:32:11.699Z,8.57
2022-10-12T22:34:44.513Z,8.60
2022-10-12T22:37:17.396Z,8.63
2022-10-12T22:39:50.235Z,8.62
2022-10-12T22:42:23.176Z,8.62
2022-10-12T22:44:56.947Z,8.63
2022-10-12T22:47:29.958Z,8.65
2022-10-12T22:50:03.197Z,8.68
2022-10-12T22:52:36.759Z,8.68
2022-10-12T22:55:10.999Z,8.68
2022-10-12T22:57:43.789Z,8.70
2022-10-12T23:00:17.814Z,8.70
2022-10-12T23:02:51.530Z,8.68
2022-10-12T23:05:24.460Z,8.69
2022-10-12T23:07:59.312Z,8.67
2022-10-12T23:10:33.325Z,8.67
2022-10-12T23:13:06.773Z,8.69
2022-10-12T23:15:39.861Z,8.72
2022-10-12T23:18:13.614Z,8.76
2022-10-12T23:20:46.431Z,8.78
2022-10-12T23:23:19.385Z,8.74
2022-10-12T23:25:54.124Z,8.73
2022-10-12T23:28:27.446Z,8.73
2022-10-12T23:31:00.422Z,8.75
2022-10-12T23:33:33.907Z,8.77
2022-10-12T23:36:13.705Z,8.79
2022-10-12T23:38:47.061Z,8.82
2022-10-12T23:41:20.152Z,8.85
2022-10-12T23:43:53.183Z,8.87
2022-10-12T23:46:26.517Z,8.90
2022-10-12T23:49:01.521Z,8.91
2022-10-12T23:51:34.940Z,8.92
2022-10-12T23:54:07.986Z,8.96
2022-10-12T23:56:41.306Z,8.97
2022-10-12T23:59:14.570Z,8.98
